sensor_id;sensor_type;location;lat;lon;timestamp;temperature;humidity
64888;DHT22;51386;53.082;8.816;2023-04-24T00:01:36;14.70;83.30
64888;DHT22;51386;53.082;8.816;2023-04-24T00:04:03;14.80;83.30
64888;DHT22;51386;53.082;8.816;2023-04-24T00:06:31;14.80;83.10
64888;DHT22;51386;53.082;8.816;2023-04-24T00:09:02;14.80;83.00
64888;DHT22;51386;53.082;8.816;2023-04-24T00:11:30;14.80;82.90
64888;DHT22;51386;53.082;8.816;2023-04-24T00:13:57;14.80;82.70
64888;DHT22;51386;53.082;8.816;2023-04-24T00:16:24;14.80;82.70
64888;DHT22;51386;53.082;8.816;2023-04-24T00:18:51;14.80;82.40
64888;DHT22;51386;53.082;8.816;2023-04-24T00:21:19;14.80;82.40
64888;DHT22;51386;53.082;8.816;2023-04-24T00:23:47;14.80;82.30
64888;DHT22;51386;53.082;8.816;2023-04-24T00:26:15;14.80;82.40
64888;DHT22;51386;53.082;8.816;2023-04-24T00:28:42;14.70;82.50
64888;DHT22;51386;53.082;8.816;2023-04-24T00:31:09;14.70;82.50
64888;DHT22;51386;53.082;8.816;2023-04-24T00:33:36;14.70;82.00
64888;DHT22;51386;53.082;8.816;2023-04-24T00:36:03;14.70;81.90
64888;DHT22;51386;53.082;8.816;2023-04-24T00:38:30;14.70;81.90
64888;DHT22;51386;53.082;8.816;2023-04-24T00:40:57;14.70;80.10
64888;DHT22;51386;53.082;8.816;2023-04-24T00:43:25;14.70;79.80
64888;DHT22;51386;53.082;8.816;2023-04-24T00:45:52;14.70;79.70
64888;DHT22;51386;53.082;8.816;2023-04-24T00:48:20;14.70;78.80
64888;DHT22;51386;53.082;8.816;2023-04-24T00:50:48;14.70;77.40
64888;DHT22;51386;53.082;8.816;2023-04-24T00:53:14;14.70;77.10
64888;DHT22;51386;53.082;8.816;2023-04-24T00:55:42;14.70;77.50
64888;DHT22;51386;53.082;8.816;2023-04-24T00:58:09;14.80;77.80
64888;DHT22;51386;53.082;8.816;2023-04-24T01:00:38;14.70;76.40
64888;DHT22;51386;53.082;8.816;2023-04-24T01:03:05;14.60;75.20
64888;DHT22;51386;53.082;8.816;2023-04-24T01:05:33;14.60;75.00
64888;DHT22;51386;53.082;8.816;2023-04-24T01:08:01;14.60;74.60
64888;DHT22;51386;53.082;8.816;2023-04-24T01:10:29;14.60;74.40
64888;DHT22;51386;53.082;8.816;2023-04-24T01:12:59;14.60;74.60
64888;DHT22;51386;53.082;8.816;2023-04-24T01:15:26;14.60;74.40
64888;DHT22;51386;53.082;8.816;2023-04-24T01:17:54;14.60;74.50
64888;DHT22;51386;53.082;8.816;2023-04-24T01:20:23;14.50;74.30
64888;DHT22;51386;53.082;8.816;2023-04-24T01:22:54;14.50;74.40
64888;DHT22;51386;53.082;8.816;2023-04-24T01:25:23;14.50;74.40
64888;DHT22;51386;53.082;8.816;2023-04-24T01:27:52;14.50;74.50
64888;DHT22;51386;53.082;8.816;2023-04-24T01:30:19;14.50;74.40
64888;DHT22;51386;53.082;8.816;2023-04-24T01:32:46;14.40;74.40
64888;DHT22;51386;53.082;8.816;2023-04-24T01:35:15;14.40;74.40
64888;DHT22;51386;53.082;8.816;2023-04-24T01:37:42;14.40;74.40
64888;DHT22;51386;53.082;8.816;2023-04-24T01:40:10;14.40;74.00
64888;DHT22;51386;53.082;8.816;2023-04-24T01:42:38;14.40;74.20
64888;DHT22;51386;53.082;8.816;2023-04-24T01:45:10;14.40;74.10
64888;DHT22;51386;53.082;8.816;2023-04-24T01:47:39;14.50;74.00
64888;DHT22;51386;53.082;8.816;2023-04-24T01:50:07;14.50;74.40
64888;DHT22;51386;53.082;8.816;2023-04-24T01:52:35;14.50;73.30
64888;DHT22;51386;53.082;8.816;2023-04-24T01:55:03;14.40;73.20
64888;DHT22;51386;53.082;8.816;2023-04-24T01:57:33;14.50;73.10
64888;DHT22;51386;53.082;8.816;2023-04-24T02:00:00;14.50;73.00
64888;DHT22;51386;53.082;8.816;2023-04-24T02:02:27;14.40;72.80
64888;DHT22;51386;53.082;8.816;2023-04-24T02:04:55;14.50;73.00
64888;DHT22;51386;53.082;8.816;2023-04-24T02:07:23;14.50;73.10
64888;DHT22;51386;53.082;8.816;2023-04-24T02:09:50;14.40;73.10
64888;DHT22;51386;53.082;8.816;2023-04-24T02:12:16;14.40;73.30
64888;DHT22;51386;53.082;8.816;2023-04-24T02:14:48;14.40;73.30
64888;DHT22;51386;53.082;8.816;2023-04-24T02:17:15;14.40;73.30
64888;DHT22;51386;53.082;8.816;2023-04-24T02:19:42;14.40;73.20
64888;DHT22;51386;53.082;8.816;2023-04-24T02:22:09;14.40;73.40
64888;DHT22;51386;53.082;8.816;2023-04-24T02:24:41;14.40;73.50
64888;DHT22;51386;53.082;8.816;2023-04-24T02:27:08;14.40;73.70
64888;DHT22;51386;53.082;8.816;2023-04-24T02:29:35;14.30;73.90
64888;DHT22;51386;53.082;8.816;2023-04-24T02:32:03;14.40;74.40
64888;DHT22;51386;53.082;8.816;2023-04-24T02:34:30;14.40;74.70
64888;DHT22;51386;53.082;8.816;2023-04-24T02:36:57;14.30;75.00
64888;DHT22;51386;53.082;8.816;2023-04-24T02:39:24;14.20;75.20
64888;DHT22;51386;53.082;8.816;2023-04-24T02:41:51;14.20;75.70
64888;DHT22;51386;53.082;8.816;2023-04-24T02:44:18;14.20;75.70
64888;DHT22;51386;53.082;8.816;2023-04-24T02:46:45;14.20;76.00
64888;DHT22;51386;53.082;8.816;2023-04-24T02:49:14;14.10;76.20
64888;DHT22;51386;53.082;8.816;2023-04-24T02:51:42;14.10;76.20
64888;DHT22;51386;53.082;8.816;2023-04-24T02:54:09;14.10;76.50
64888;DHT22;51386;53.082;8.816;2023-04-24T02:56:39;14.10;76.50
64888;DHT22;51386;53.082;8.816;2023-04-24T02:59:06;14.10;76.60
64888;DHT22;51386;53.082;8.816;2023-04-24T03:01:33;14.10;76.40
64888;DHT22;51386;53.082;8.816;2023-04-24T03:04:00;14.10;76.60
64888;DHT22;51386;53.082;8.816;2023-04-24T03:06:29;14.10;76.60
64888;DHT22;51386;53.082;8.816;2023-04-24T03:08:57;14.10;76.40
64888;DHT22;51386;53.082;8.816;2023-04-24T03:11:28;14.00;75.80
64888;DHT22;51386;53.082;8.816;2023-04-24T03:13:57;14.00;75.70
64888;DHT22;51386;53.082;8.816;2023-04-24T03:16:24;14.10;75.60
64888;DHT22;51386;53.082;8.816;2023-04-24T03:18:51;14.00;75.40
64888;DHT22;51386;53.082;8.816;2023-04-24T03:21:18;14.10;75.20
64888;DHT22;51386;53.082;8.816;2023-04-24T03:23:54;14.10;75.00
64888;DHT22;51386;53.082;8.816;2023-04-24T03:26:25;14.10;74.80
64888;DHT22;51386;53.082;8.816;2023-04-24T03:28:52;14.10;74.70
64888;DHT22;51386;53.082;8.816;2023-04-24T03:31:19;14.10;74.60
64888;DHT22;51386;53.082;8.816;2023-04-24T03:33:47;14.10;74.40
64888;DHT22;51386;53.082;8.816;2023-04-24T03:36:14;14.20;74.30
64888;DHT22;51386;53.082;8.816;2023-04-24T03:38:41;14.20;74.10
64888;DHT22;51386;53.082;8.816;2023-04-24T03:41:10;14.20;73.80
64888;DHT22;51386;53.082;8.816;2023-04-24T03:43:37;14.20;73.50
64888;DHT22;51386;53.082;8.816;2023-04-24T03:46:05;14.10;73.90
64888;DHT22;51386;53.082;8.816;2023-04-24T03:48:32;14.10;73.10
64888;DHT22;51386;53.082;8.816;2023-04-24T03:50:59;14.10;73.20
64888;DHT22;51386;53.082;8.816;2023-04-24T03:53:26;14.10;73.00
64888;DHT22;51386;53.082;8.816;2023-04-24T03:55:53;14.10;72.80
64888;DHT22;51386;53.082;8.816;2023-04-24T03:58:21;14.10;72.90
64888;DHT22;51386;53.082;8.816;2023-04-24T04:00:48;14.10;72.50
64888;DHT22;51386;53.082;8.816;2023-04-24T04:03:16;14.20;72.60
64888;DHT22;51386;53.082;8.816;2023-04-24T04:05:44;14.20;72.50
64888;DHT22;51386;53.082;8.816;2023-04-24T04:08:11;14.10;72.30
64888;DHT22;51386;53.082;8.816;2023-04-24T04:10:38;14.10;72.20
64888;DHT22;51386;53.082;8.816;2023-04-24T04:13:04;14.20;72.30
64888;DHT22;51386;53.082;8.816;2023-04-24T04:15:34;14.20;72.30
64888;DHT22;51386;53.082;8.816;2023-04-24T04:18:01;14.20;72.10
64888;DHT22;51386;53.082;8.816;2023-04-24T04:20:28;14.20;72.10
64888;DHT22;51386;53.082;8.816;2023-04-24T04:22:55;14.20;72.00
64888;DHT22;51386;53.082;8.816;2023-04-24T04:25:22;14.20;71.70
64888;DHT22;51386;53.082;8.816;2023-04-24T04:27:49;14.20;71.50
64888;DHT22;51386;53.082;8.816;2023-04-24T04:30:18;14.20;71.50
64888;DHT22;51386;53.082;8.816;2023-04-24T04:32:46;14.20;71.30
64888;DHT22;51386;53.082;8.816;2023-04-24T04:35:13;14.20;71.30
64888;DHT22;51386;53.082;8.816;2023-04-24T04:37:40;14.10;71.20
64888;DHT22;51386;53.082;8.816;2023-04-24T04:40:08;14.20;71.20
64888;DHT22;51386;53.082;8.816;2023-04-24T04:42:38;14.20;71.40
64888;DHT22;51386;53.082;8.816;2023-04-24T04:45:07;14.20;71.50
64888;DHT22;51386;53.082;8.816;2023-04-24T04:47:38;14.20;71.50
64888;DHT22;51386;53.082;8.816;2023-04-24T04:50:08;14.20;71.70
64888;DHT22;51386;53.082;8.816;2023-04-24T04:52:36;14.20;71.60
64888;DHT22;51386;53.082;8.816;2023-04-24T04:55:03;14.20;71.70
64888;DHT22;51386;53.082;8.816;2023-04-24T04:57:31;14.20;71.70
64888;DHT22;51386;53.082;8.816;2023-04-24T04:59:58;14.20;71.60
64888;DHT22;51386;53.082;8.816;2023-04-24T05:02:25;14.20;71.60
64888;DHT22;51386;53.082;8.816;2023-04-24T05:04:52;14.20;71.60
64888;DHT22;51386;53.082;8.816;2023-04-24T05:07:21;14.20;71.40
64888;DHT22;51386;53.082;8.816;2023-04-24T05:09:48;14.20;71.50
64888;DHT22;51386;53.082;8.816;2023-04-24T05:12:15;14.20;71.20
64888;DHT22;51386;53.082;8.816;2023-04-24T05:14:42;14.20;70.90
64888;DHT22;51386;53.082;8.816;2023-04-24T05:17:09;14.20;71.00
64888;DHT22;51386;53.082;8.816;2023-04-24T05:19:36;14.20;71.30
64888;DHT22;51386;53.082;8.816;2023-04-24T05:22:05;14.30;71.40
64888;DHT22;51386;53.082;8.816;2023-04-24T05:24:34;14.30;71.40
64888;DHT22;51386;53.082;8.816;2023-04-24T05:27:02;14.30;71.40
64888;DHT22;51386;53.082;8.816;2023-04-24T05:29:31;14.30;71.50
64888;DHT22;51386;53.082;8.816;2023-04-24T05:31:58;14.30;71.60
64888;DHT22;51386;53.082;8.816;2023-04-24T05:34:25;14.30;71.60
64888;DHT22;51386;53.082;8.816;2023-04-24T05:36:52;14.30;71.50
64888;DHT22;51386;53.082;8.816;2023-04-24T05:39:19;14.30;71.60
64888;DHT22;51386;53.082;8.816;2023-04-24T05:41:48;14.30;71.60
64888;DHT22;51386;53.082;8.816;2023-04-24T05:44:15;14.20;71.50
64888;DHT22;51386;53.082;8.816;2023-04-24T05:46:42;14.20;71.30
64888;DHT22;51386;53.082;8.816;2023-04-24T05:49:09;14.20;71.60
64888;DHT22;51386;53.082;8.816;2023-04-24T05:51:36;14.20;71.70
64888;DHT22;51386;53.082;8.816;2023-04-24T05:54:03;14.10;71.70
64888;DHT22;51386;53.082;8.816;2023-04-24T05:56:30;14.10;72.00
64888;DHT22;51386;53.082;8.816;2023-04-24T05:58:58;14.20;72.10
64888;DHT22;51386;53.082;8.816;2023-04-24T06:01:25;14.20;71.90
64888;DHT22;51386;53.082;8.816;2023-04-24T06:03:53;14.20;71.90
64888;DHT22;51386;53.082;8.816;2023-04-24T06:06:21;14.30;71.90
64888;DHT22;51386;53.082;8.816;2023-04-24T06:08:48;14.30;71.60
64888;DHT22;51386;53.082;8.816;2023-04-24T06:11:15;14.40;71.40
64888;DHT22;51386;53.082;8.816;2023-04-24T06:13:42;14.40;71.30
64888;DHT22;51386;53.082;8.816;2023-04-24T06:16:10;14.40;71.30
64888;DHT22;51386;53.082;8.816;2023-04-24T06:18:37;14.40;71.20
64888;DHT22;51386;53.082;8.816;2023-04-24T06:21:04;14.40;71.00
64888;DHT22;51386;53.082;8.816;2023-04-24T06:23:32;14.40;70.90
64888;DHT22;51386;53.082;8.816;2023-04-24T06:25:59;14.50;71.00
64888;DHT22;51386;53.082;8.816;2023-04-24T06:28:26;14.50;70.90
64888;DHT22;51386;53.082;8.816;2023-04-24T06:30:53;14.50;70.80
64888;DHT22;51386;53.082;8.816;2023-04-24T06:33:22;14.60;70.80
64888;DHT22;51386;53.082;8.816;2023-04-24T06:35:49;14.60;70.10
64888;DHT22;51386;53.082;8.816;2023-04-24T06:38:16;14.50;69.80
64888;DHT22;51386;53.082;8.816;2023-04-24T06:40:44;14.60;70.00
64888;DHT22;51386;53.082;8.816;2023-04-24T06:43:12;14.50;69.90
64888;DHT22;51386;53.082;8.816;2023-04-24T06:45:39;14.50;70.00
64888;DHT22;51386;53.082;8.816;2023-04-24T06:48:06;14.60;70.10
64888;DHT22;51386;53.082;8.816;2023-04-24T06:50:35;14.60;70.10
64888;DHT22;51386;53.082;8.816;2023-04-24T06:53:02;14.60;69.80
64888;DHT22;51386;53.082;8.816;2023-04-24T06:55:29;14.60;70.10
64888;DHT22;51386;53.082;8.816;2023-04-24T06:57:57;14.50;70.20
64888;DHT22;51386;53.082;8.816;2023-04-24T07:00:24;14.50;70.30
64888;DHT22;51386;53.082;8.816;2023-04-24T07:02:51;14.40;70.50
64888;DHT22;51386;53.082;8.816;2023-04-24T07:05:18;14.40;70.80
64888;DHT22;51386;53.082;8.816;2023-04-24T07:07:48;14.40;70.90
64888;DHT22;51386;53.082;8.816;2023-04-24T07:10:16;14.30;70.90
64888;DHT22;51386;53.082;8.816;2023-04-24T07:12:46;14.30;70.90
64888;DHT22;51386;53.082;8.816;2023-04-24T07:15:14;14.30;71.80
64888;DHT22;51386;53.082;8.816;2023-04-24T07:17:41;14.40;71.20
64888;DHT22;51386;53.082;8.816;2023-04-24T07:20:11;14.40;71.20
64888;DHT22;51386;53.082;8.816;2023-04-24T07:22:38;14.40;71.20
64888;DHT22;51386;53.082;8.816;2023-04-24T07:25:08;14.40;71.10
64888;DHT22;51386;53.082;8.816;2023-04-24T07:27:35;14.50;70.80
64888;DHT22;51386;53.082;8.816;2023-04-24T07:30:03;14.50;71.10
64888;DHT22;51386;53.082;8.816;2023-04-24T07:32:31;14.50;70.70
64888;DHT22;51386;53.082;8.816;2023-04-24T07:34:58;14.60;70.70
64888;DHT22;51386;53.082;8.816;2023-04-24T07:37:25;14.60;70.50
64888;DHT22;51386;53.082;8.816;2023-04-24T07:39:52;14.70;69.70
64888;DHT22;51386;53.082;8.816;2023-04-24T07:42:21;14.80;69.40
64888;DHT22;51386;53.082;8.816;2023-04-24T07:44:48;14.90;69.20
64888;DHT22;51386;53.082;8.816;2023-04-24T07:47:15;14.90;68.80
64888;DHT22;51386;53.082;8.816;2023-04-24T07:49:42;15.00;68.40
64888;DHT22;51386;53.082;8.816;2023-04-24T07:52:10;15.10;67.40
64888;DHT22;51386;53.082;8.816;2023-04-24T07:54:37;15.10;67.30
64888;DHT22;51386;53.082;8.816;2023-04-24T07:57:04;15.10;67.40
64888;DHT22;51386;53.082;8.816;2023-04-24T07:59:34;15.10;67.40
64888;DHT22;51386;53.082;8.816;2023-04-24T08:02:01;15.10;67.20
64888;DHT22;51386;53.082;8.816;2023-04-24T08:04:29;15.00;67.00
64888;DHT22;51386;53.082;8.816;2023-04-24T08:06:56;15.10;67.40
64888;DHT22;51386;53.082;8.816;2023-04-24T08:09:23;15.10;67.50
64888;DHT22;51386;53.082;8.816;2023-04-24T08:11:53;15.10;67.20
64888;DHT22;51386;53.082;8.816;2023-04-24T08:14:20;15.10;67.10
64888;DHT22;51386;53.082;8.816;2023-04-24T08:16:48;15.20;67.20
64888;DHT22;51386;53.082;8.816;2023-04-24T08:19:15;15.20;67.00
64888;DHT22;51386;53.082;8.816;2023-04-24T08:21:43;15.20;67.00
64888;DHT22;51386;53.082;8.816;2023-04-24T08:24:13;15.10;66.90
64888;DHT22;51386;53.082;8.816;2023-04-24T08:26:40;15.10;66.80
64888;DHT22;51386;53.082;8.816;2023-04-24T08:29:07;15.00;66.70
64888;DHT22;51386;53.082;8.816;2023-04-24T08:31:34;14.90;66.50
64888;DHT22;51386;53.082;8.816;2023-04-24T08:34:03;14.90;66.70
64888;DHT22;51386;53.082;8.816;2023-04-24T08:36:31;14.90;66.80
64888;DHT22;51386;53.082;8.816;2023-04-24T08:39:12;15.00;67.20
64888;DHT22;51386;53.082;8.816;2023-04-24T08:41:41;15.10;67.00
64888;DHT22;51386;53.082;8.816;2023-04-24T08:44:10;15.10;66.60
64888;DHT22;51386;53.082;8.816;2023-04-24T08:46:40;15.10;66.60
64888;DHT22;51386;53.082;8.816;2023-04-24T08:49:11;15.30;66.80
64888;DHT22;51386;53.082;8.816;2023-04-24T08:51:39;15.30;65.80
64888;DHT22;51386;53.082;8.816;2023-04-24T08:54:06;15.40;64.50
64888;DHT22;51386;53.082;8.816;2023-04-24T08:56:34;15.50;64.60
64888;DHT22;51386;53.082;8.816;2023-04-24T08:59:05;15.60;64.50
64888;DHT22;51386;53.082;8.816;2023-04-24T09:01:33;15.70;64.50
64888;DHT22;51386;53.082;8.816;2023-04-24T09:04:02;15.80;63.70
64888;DHT22;51386;53.082;8.816;2023-04-24T09:06:32;15.90;63.40
64888;DHT22;51386;53.082;8.816;2023-04-24T09:09:01;15.90;63.30
64888;DHT22;51386;53.082;8.816;2023-04-24T09:11:30;15.90;63.20
64888;DHT22;51386;53.082;8.816;2023-04-24T09:13:59;15.90;63.60
64888;DHT22;51386;53.082;8.816;2023-04-24T09:16:27;15.90;63.80
64888;DHT22;51386;53.082;8.816;2023-04-24T09:18:55;15.90;63.70
64888;DHT22;51386;53.082;8.816;2023-04-24T09:21:22;15.90;63.50
64888;DHT22;51386;53.082;8.816;2023-04-24T09:23:59;15.80;63.60
64888;DHT22;51386;53.082;8.816;2023-04-24T09:26:29;15.80;64.30
64888;DHT22;51386;53.082;8.816;2023-04-24T09:28:59;15.90;64.60
64888;DHT22;51386;53.082;8.816;2023-04-24T09:31:27;16.10;63.70
64888;DHT22;51386;53.082;8.816;2023-04-24T09:33:58;16.30;62.70
64888;DHT22;51386;53.082;8.816;2023-04-24T09:36:29;16.40;61.60
64888;DHT22;51386;53.082;8.816;2023-04-24T09:39:02;16.50;61.40
64888;DHT22;51386;53.082;8.816;2023-04-24T09:41:32;16.50;61.30
64888;DHT22;51386;53.082;8.816;2023-04-24T09:44:10;16.40;61.10
64888;DHT22;51386;53.082;8.816;2023-04-24T09:46:38;16.40;61.50
64888;DHT22;51386;53.082;8.816;2023-04-24T09:49:10;16.30;61.50
64888;DHT22;51386;53.082;8.816;2023-04-24T09:51:43;16.20;61.90
64888;DHT22;51386;53.082;8.816;2023-04-24T09:54:16;16.10;62.00
64888;DHT22;51386;53.082;8.816;2023-04-24T09:56:45;16.00;62.30
64888;DHT22;51386;53.082;8.816;2023-04-24T09:59:13;15.80;62.70
64888;DHT22;51386;53.082;8.816;2023-04-24T10:01:41;15.70;63.10
64888;DHT22;51386;53.082;8.816;2023-04-24T10:04:15;15.60;63.20
64888;DHT22;51386;53.082;8.816;2023-04-24T10:06:45;15.50;63.20
64888;DHT22;51386;53.082;8.816;2023-04-24T10:09:14;15.50;63.60
64888;DHT22;51386;53.082;8.816;2023-04-24T10:11:43;15.40;63.60
64888;DHT22;51386;53.082;8.816;2023-04-24T10:14:13;15.40;64.10
64888;DHT22;51386;53.082;8.816;2023-04-24T10:16:42;15.20;64.00
64888;DHT22;51386;53.082;8.816;2023-04-24T10:19:10;15.10;63.90
64888;DHT22;51386;53.082;8.816;2023-04-24T10:21:40;15.10;64.20
64888;DHT22;51386;53.082;8.816;2023-04-24T10:24:15;15.10;64.70
64888;DHT22;51386;53.082;8.816;2023-04-24T10:26:45;15.00;64.90
64888;DHT22;51386;53.082;8.816;2023-04-24T10:29:14;14.90;64.80
64888;DHT22;51386;53.082;8.816;2023-04-24T10:31:42;14.90;65.40
64888;DHT22;51386;53.082;8.816;2023-04-24T10:34:16;14.90;65.40
64888;DHT22;51386;53.082;8.816;2023-04-24T10:36:50;14.70;66.00
64888;DHT22;51386;53.082;8.816;2023-04-24T10:39:23;14.70;66.30
64888;DHT22;51386;53.082;8.816;2023-04-24T10:41:53;14.60;66.80
64888;DHT22;51386;53.082;8.816;2023-04-24T10:44:25;14.60;67.70
64888;DHT22;51386;53.082;8.816;2023-04-24T10:47:02;14.50;68.00
64888;DHT22;51386;53.082;8.816;2023-04-24T10:49:31;14.40;68.30
64888;DHT22;51386;53.082;8.816;2023-04-24T10:52:01;14.30;68.50
64888;DHT22;51386;53.082;8.816;2023-04-24T10:54:35;14.40;68.60
64888;DHT22;51386;53.082;8.816;2023-04-24T10:57:26;14.40;68.60
64888;DHT22;51386;53.082;8.816;2023-04-24T11:00:16;14.40;68.50
64888;DHT22;51386;53.082;8.816;2023-04-24T11:02:47;14.40;68.70
64888;DHT22;51386;53.082;8.816;2023-04-24T11:05:17;14.50;68.70
64888;DHT22;51386;53.082;8.816;2023-04-24T11:08:10;14.50;68.60
64888;DHT22;51386;53.082;8.816;2023-04-24T11:10:43;14.60;67.60
64888;DHT22;51386;53.082;8.816;2023-04-24T11:13:14;14.70;67.50
64888;DHT22;51386;53.082;8.816;2023-04-24T11:15:43;14.70;67.70
64888;DHT22;51386;53.082;8.816;2023-04-24T11:18:13;14.80;68.40
64888;DHT22;51386;53.082;8.816;2023-04-24T11:20:46;14.80;67.50
64888;DHT22;51386;53.082;8.816;2023-04-24T11:23:18;14.80;67.90
64888;DHT22;51386;53.082;8.816;2023-04-24T11:26:10;14.90;67.00
64888;DHT22;51386;53.082;8.816;2023-04-24T11:28:44;15.00;66.90
64888;DHT22;51386;53.082;8.816;2023-04-24T11:31:35;15.00;67.30
64888;DHT22;51386;53.082;8.816;2023-04-24T11:34:10;14.90;67.30
64888;DHT22;51386;53.082;8.816;2023-04-24T11:36:42;14.80;67.80
64888;DHT22;51386;53.082;8.816;2023-04-24T11:39:10;14.70;67.80
64888;DHT22;51386;53.082;8.816;2023-04-24T11:41:39;14.70;68.20
64888;DHT22;51386;53.082;8.816;2023-04-24T11:44:09;14.70;68.30
64888;DHT22;51386;53.082;8.816;2023-04-24T11:46:38;14.70;68.60
64888;DHT22;51386;53.082;8.816;2023-04-24T11:49:07;14.80;69.30
64888;DHT22;51386;53.082;8.816;2023-04-24T11:51:34;14.80;69.00
64888;DHT22;51386;53.082;8.816;2023-04-24T11:54:17;14.80;69.00
64888;DHT22;51386;53.082;8.816;2023-04-24T11:56:46;14.70;69.10
64888;DHT22;51386;53.082;8.816;2023-04-24T11:59:13;14.70;69.30
64888;DHT22;51386;53.082;8.816;2023-04-24T12:01:44;14.70;69.30
64888;DHT22;51386;53.082;8.816;2023-04-24T12:04:12;14.60;69.70
64888;DHT22;51386;53.082;8.816;2023-04-24T12:06:40;14.60;71.80
64888;DHT22;51386;53.082;8.816;2023-04-24T12:09:25;14.60;72.10
64888;DHT22;51386;53.082;8.816;2023-04-24T12:11:56;14.50;72.20
64888;DHT22;51386;53.082;8.816;2023-04-24T12:14:26;14.50;73.50
64888;DHT22;51386;53.082;8.816;2023-04-24T12:16:53;14.50;75.10
64888;DHT22;51386;53.082;8.816;2023-04-24T12:19:21;14.40;75.30
64888;DHT22;51386;53.082;8.816;2023-04-24T12:22:01;14.40;75.80
64888;DHT22;51386;53.082;8.816;2023-04-24T12:24:29;14.30;77.00
64888;DHT22;51386;53.082;8.816;2023-04-24T12:26:58;14.30;76.80
64888;DHT22;51386;53.082;8.816;2023-04-24T12:29:28;14.30;76.90
64888;DHT22;51386;53.082;8.816;2023-04-24T12:31:54;14.30;77.40
64888;DHT22;51386;53.082;8.816;2023-04-24T12:34:24;14.20;77.20
64888;DHT22;51386;53.082;8.816;2023-04-24T12:36:52;14.10;77.60
64888;DHT22;51386;53.082;8.816;2023-04-24T12:39:20;14.00;78.00
64888;DHT22;51386;53.082;8.816;2023-04-24T12:41:54;14.00;78.90
64888;DHT22;51386;53.082;8.816;2023-04-24T12:44:31;13.90;79.50
64888;DHT22;51386;53.082;8.816;2023-04-24T12:47:09;13.90;80.30
64888;DHT22;51386;53.082;8.816;2023-04-24T12:49:40;13.80;80.40
64888;DHT22;51386;53.082;8.816;2023-04-24T12:52:07;13.80;81.20
64888;DHT22;51386;53.082;8.816;2023-04-24T12:54:34;13.70;81.30
64888;DHT22;51386;53.082;8.816;2023-04-24T12:57:02;13.70;81.90
64888;DHT22;51386;53.082;8.816;2023-04-24T12:59:30;13.70;82.10
64888;DHT22;51386;53.082;8.816;2023-04-24T13:01:57;13.70;82.20
64888;DHT22;51386;53.082;8.816;2023-04-24T13:04:24;13.60;82.60
64888;DHT22;51386;53.082;8.816;2023-04-24T13:06:51;13.60;83.00
64888;DHT22;51386;53.082;8.816;2023-04-24T13:09:18;13.60;83.60
64888;DHT22;51386;53.082;8.816;2023-04-24T13:11:46;13.60;83.50
64888;DHT22;51386;53.082;8.816;2023-04-24T13:14:13;13.50;84.50
64888;DHT22;51386;53.082;8.816;2023-04-24T13:16:41;13.50;83.50
64888;DHT22;51386;53.082;8.816;2023-04-24T13:19:08;13.40;83.50
64888;DHT22;51386;53.082;8.816;2023-04-24T13:21:35;13.30;83.60
64888;DHT22;51386;53.082;8.816;2023-04-24T13:24:02;13.20;83.10
64888;DHT22;51386;53.082;8.816;2023-04-24T13:26:31;13.20;83.30
64888;DHT22;51386;53.082;8.816;2023-04-24T13:28:58;13.20;82.90
64888;DHT22;51386;53.082;8.816;2023-04-24T13:31:25;13.10;82.30
64888;DHT22;51386;53.082;8.816;2023-04-24T13:33:54;13.10;83.20
64888;DHT22;51386;53.082;8.816;2023-04-24T13:36:21;13.10;82.80
64888;DHT22;51386;53.082;8.816;2023-04-24T13:38:48;13.00;82.20
64888;DHT22;51386;53.082;8.816;2023-04-24T13:41:15;13.00;82.00
64888;DHT22;51386;53.082;8.816;2023-04-24T13:43:42;13.00;82.00
64888;DHT22;51386;53.082;8.816;2023-04-24T13:46:10;13.00;82.00
64888;DHT22;51386;53.082;8.816;2023-04-24T13:48:37;12.90;81.50
64888;DHT22;51386;53.082;8.816;2023-04-24T13:51:09;12.90;81.20
64888;DHT22;51386;53.082;8.816;2023-04-24T13:53:36;12.80;81.40
64888;DHT22;51386;53.082;8.816;2023-04-24T13:56:05;12.80;81.70
64888;DHT22;51386;53.082;8.816;2023-04-24T13:58:32;12.80;82.20
64888;DHT22;51386;53.082;8.816;2023-04-24T14:00:59;12.80;82.10
64888;DHT22;51386;53.082;8.816;2023-04-24T14:03:26;12.70;82.90
64888;DHT22;51386;53.082;8.816;2023-04-24T14:05:53;12.70;83.10
64888;DHT22;51386;53.082;8.816;2023-04-24T14:08:22;12.70;83.10
64888;DHT22;51386;53.082;8.816;2023-04-24T14:10:50;12.60;82.80
64888;DHT22;51386;53.082;8.816;2023-04-24T14:13:17;12.70;82.80
64888;DHT22;51386;53.082;8.816;2023-04-24T14:15:45;12.60;82.50
64888;DHT22;51386;53.082;8.816;2023-04-24T14:18:12;12.60;82.80
64888;DHT22;51386;53.082;8.816;2023-04-24T14:20:39;12.60;82.50
64888;DHT22;51386;53.082;8.816;2023-04-24T14:23:07;12.50;82.00
64888;DHT22;51386;53.082;8.816;2023-04-24T14:25:35;12.50;81.80
64888;DHT22;51386;53.082;8.816;2023-04-24T14:28:02;12.50;81.70
64888;DHT22;51386;53.082;8.816;2023-04-24T14:30:29;12.50;81.70
64888;DHT22;51386;53.082;8.816;2023-04-24T14:32:57;12.40;81.50
64888;DHT22;51386;53.082;8.816;2023-04-24T14:35:24;12.40;81.50
64888;DHT22;51386;53.082;8.816;2023-04-24T14:37:50;12.40;81.30
64888;DHT22;51386;53.082;8.816;2023-04-24T14:40:18;12.40;81.40
64888;DHT22;51386;53.082;8.816;2023-04-24T14:43:06;12.40;81.20
64888;DHT22;51386;53.082;8.816;2023-04-24T14:45:33;12.30;81.30
64888;DHT22;51386;53.082;8.816;2023-04-24T14:48:00;12.30;81.10
64888;DHT22;51386;53.082;8.816;2023-04-24T14:50:27;12.30;80.70
64888;DHT22;51386;53.082;8.816;2023-04-24T14:52:55;12.30;80.40
64888;DHT22;51386;53.082;8.816;2023-04-24T14:55:24;12.30;80.80
64888;DHT22;51386;53.082;8.816;2023-04-24T14:57:52;12.30;80.50
64888;DHT22;51386;53.082;8.816;2023-04-24T15:00:22;12.30;80.40
64888;DHT22;51386;53.082;8.816;2023-04-24T15:02:50;12.30;80.60
64888;DHT22;51386;53.082;8.816;2023-04-24T15:05:18;12.30;81.20
64888;DHT22;51386;53.082;8.816;2023-04-24T15:07:45;12.30;80.80
64888;DHT22;51386;53.082;8.816;2023-04-24T15:10:13;12.40;81.00
64888;DHT22;51386;53.082;8.816;2023-04-24T15:12:40;12.40;81.40
64888;DHT22;51386;53.082;8.816;2023-04-24T15:15:08;12.40;81.60
64888;DHT22;51386;53.082;8.816;2023-04-24T15:17:37;12.40;81.20
64888;DHT22;51386;53.082;8.816;2023-04-24T15:20:06;12.40;80.50
64888;DHT22;51386;53.082;8.816;2023-04-24T15:22:34;12.50;80.60
64888;DHT22;51386;53.082;8.816;2023-04-24T15:25:02;12.50;80.60
64888;DHT22;51386;53.082;8.816;2023-04-24T15:27:41;12.50;80.80
64888;DHT22;51386;53.082;8.816;2023-04-24T15:30:09;12.50;81.60
64888;DHT22;51386;53.082;8.816;2023-04-24T15:32:39;12.50;81.10
64888;DHT22;51386;53.082;8.816;2023-04-24T15:35:07;12.50;81.20
64888;DHT22;51386;53.082;8.816;2023-04-24T15:37:36;12.50;80.60
64888;DHT22;51386;53.082;8.816;2023-04-24T15:40:05;12.50;80.40